createdAt,value
2022-09-04T00:00:19.407Z,72.79
2022-09-04T00:01:25.802Z,72.51
2022-09-04T00:02:48.406Z,72.47
2022-09-04T00:03:56.404Z,71.95
2022-09-04T00:05:35.286Z,71.85
2022-09-04T00:06:38.467Z,71.64
2022-09-04T00:07:47.302Z,71.33
2022-09-04T00:08:48.815Z,71.35
2022-09-04T00:10:11.375Z,71.33
2022-09-04T00:11:18.956Z,71.35
2022-09-04T00:12:26.728Z,71.41
2022-09-04T00:13:31.909Z,71.47
2022-09-04T00:14:37.151Z,71.45
2022-09-04T00:15:43.344Z,71.29
2022-09-04T00:16:54.917Z,71.11
2022-09-04T00:18:06.709Z,71.16
2022-09-04T00:19:10.183Z,70.96
2022-09-04T00:20:20.699Z,70.87
2022-09-04T00:21:28.270Z,71.07
2022-09-04T00:22:29.806Z,71.24
2022-09-04T00:23:51.575Z,71.33
2022-09-04T00:25:04.025Z,71.22
2022-09-04T00:26:36.659Z,71.23
2022-09-04T00:27:44.831Z,71.21
2022-09-04T00:28:56.086Z,71.38
2022-09-04T00:30:29.937Z,71.57
2022-09-04T00:31:36.683Z,71.47
2022-09-04T00:32:38.657Z,71.50
2022-09-04T00:33:49.114Z,71.35
2022-09-04T00:34:50.702Z,71.26
2022-09-04T00:35:56.555Z,71.25
2022-09-04T00:36:58.454Z,71.29
2022-09-04T00:38:02.844Z,71.26
2022-09-04T00:39:09.124Z,71.32
2022-09-04T00:40:34.022Z,71.32
2022-09-04T00:41:54.871Z,71.51
2022-09-04T00:43:11.194Z,71.70
2022-09-04T00:44:28.322Z,72.16
2022-09-04T00:45:39.080Z,72.82
2022-09-04T00:46:58.947Z,72.76
2022-09-04T00:48:03.618Z,72.86
2022-09-04T00:49:25.387Z,72.79
2022-09-04T00:50:35.661Z,72.80
2022-09-04T00:51:52.704Z,72.92
2022-09-04T00:52:58.484Z,72.72
2022-09-04T00:54:19.654Z,72.74
2022-09-04T00:55:41.083Z,72.87
2022-09-04T00:57:01.359Z,72.64
2022-09-04T00:58:14.928Z,72.62
2022-09-04T00:59:33.618Z,73.00
2022-09-04T01:00:36.104Z,72.95
2022-09-04T01:01:38.801Z,72.81
2022-09-04T01:02:57.317Z,72.79
2022-09-04T01:04:17.595Z,72.93
2022-09-04T01:05:27.963Z,73.09
2022-09-04T01:06:32.845Z,72.73
2022-09-04T01:07:35.287Z,72.87
2022-09-04T01:08:40.787Z,72.79
2022-09-04T01:09:54.021Z,72.75
2022-09-04T01:11:10.958Z,72.63
2022-09-04T01:12:12.563Z,72.37
2022-09-04T01:13:33.903Z,72.65
2022-09-04T01:14:40.227Z,72.73
2022-09-04T01:15:45.954Z,72.80
2022-09-04T01:16:54.508Z,72.45
2022-09-04T01:17:59.099Z,72.65
2022-09-04T01:19:19.395Z,72.85
2022-09-04T01:20:31.665Z,72.65
2022-09-04T01:21:45.443Z,73.24
2022-09-04T01:22:51.690Z,72.91
2022-09-04T01:23:55.936Z,72.60
2022-09-04T01:25:03.209Z,72.75
2022-09-04T01:26:08.001Z,72.76
2022-09-04T01:27:10.718Z,72.73
2022-09-04T01:28:26.173Z,72.66
2022-09-04T01:29:46.559Z,72.61
2022-09-04T01:30:48.084Z,72.28
2022-09-04T01:31:58.650Z,72.26
2022-09-04T01:33:07.095Z,72.21
2022-09-04T01:34:08.555Z,72.24
2022-09-04T01:35:15.990Z,72.18
2022-09-04T01:36:37.799Z,72.09
2022-09-04T01:38:05.634Z,71.94
2022-09-04T01:39:07.263Z,72.05
2022-09-04T01:40:35.493Z,71.88
2022-09-04T01:41:38.627Z,71.87
2022-09-04T01:42:46.199Z,71.82
2022-09-04T01:43:47.878Z,71.83
2022-09-04T01:44:49.475Z,71.59
2022-09-04T01:46:10.237Z,71.47
2022-09-04T01:47:11.777Z,71.41
2022-09-04T01:48:14.323Z,71.29
2022-09-04T01:49:34.620Z,71.14
2022-09-04T01:50:36.456Z,71.15
2022-09-04T01:51:38.009Z,71.00
2022-09-04T01:52:53.984Z,71.02
2022-09-04T01:54:18.074Z,70.99
2022-09-04T01:55:38.563Z,70.93
2022-09-04T01:56:55.164Z,70.92
2022-09-04T01:58:15.405Z,70.84
2022-09-04T01:59:19.622Z,70.82
2022-09-04T02:00:23.091Z,70.63
2022-09-04T02:01:45.489Z,70.32
2022-09-04T02:02:47.023Z,70.29
2022-09-04T02:04:09.309Z,70.25
2022-09-04T02:05:29.373Z,70.23
2022-09-04T02:06:30.848Z,70.19
2022-09-04T02:07:44.444Z,70.17
2022-09-04T02:09:01.255Z,70.19
2022-09-04T02:10:06.004Z,70.28
2022-09-04T02:11:16.576Z,70.26
2022-09-04T02:12:38.115Z,70.23
2022-09-04T02:13:56.331Z,70.31
2022-09-04T02:14:57.856Z,70.36
2022-09-04T02:16:17.858Z,70.33
2022-09-04T02:17:34.379Z,70.39
2022-09-04T02:18:43.321Z,70.52
2022-09-04T02:19:57.841Z,70.69
2022-09-04T02:21:05.292Z,70.61
2022-09-04T02:22:12.898Z,70.73
2022-09-04T02:23:35.807Z,70.80
2022-09-04T02:24:52.639Z,70.80
2022-09-04T02:25:59.131Z,70.93
2022-09-04T02:27:13.679Z,70.99
2022-09-04T02:28:33.602Z,71.03
2022-09-04T02:29:39.623Z,71.04
2022-09-04T02:30:59.994Z,71.12
2022-09-04T02:32:25.715Z,71.07
2022-09-04T02:33:30.011Z,71.10
2022-09-04T02:34:40.020Z,71.16
2022-09-04T02:35:47.313Z,71.27
2022-09-04T02:37:15.339Z,71.25
2022-09-04T02:38:19.619Z,71.26
2022-09-04T02:39:21.277Z,71.39
2022-09-04T02:40:40.161Z,71.38
2022-09-04T02:41:51.156Z,71.35
2022-09-04T02:42:58.549Z,71.34
2022-09-04T02:44:07.085Z,71.42
2022-09-04T02:45:11.348Z,71.48
2022-09-04T02:46:22.757Z,71.32
2022-09-04T02:47:29.183Z,71.58
2022-09-04T02:48:38.107Z,71.66
2022-09-04T02:49:39.648Z,71.66
2022-09-04T02:50:46.202Z,71.51
2022-09-04T02:51:56.700Z,71.48
2022-09-04T02:53:10.380Z,71.43
2022-09-04T02:54:21.359Z,71.32
2022-09-04T02:55:35.195Z,71.10
2022-09-04T02:56:41.750Z,71.10
2022-09-04T02:57:43.240Z,71.12
2022-09-04T02:59:03.681Z,71.02
2022-09-04T03:00:20.931Z,70.91
2022-09-04T03:01:23.296Z,70.85
2022-09-04T03:02:29.703Z,70.92
2022-09-04T03:03:43.645Z,70.95
2022-09-04T03:04:50.948Z,70.89
2022-09-04T03:05:52.470Z,70.92
2022-09-04T03:06:55.095Z,70.97
2022-09-04T03:07:56.569Z,70.86
2022-09-04T03:08:59.820Z,70.95
2022-09-04T03:10:08.521Z,70.86
2022-09-04T03:11:30.327Z,70.90
2022-09-04T03:12:34.951Z,70.93
2022-09-04T03:13:55.142Z,70.93
2022-09-04T03:14:59.560Z,71.07
2022-09-04T03:16:07.309Z,70.94
2022-09-04T03:17:26.206Z,71.08
2022-09-04T03:18:30.419Z,71.07
2022-09-04T03:19:48.941Z,71.17
2022-09-04T03:21:22.835Z,71.12
2022-09-04T03:22:26.988Z,71.17
2022-09-04T03:23:46.721Z,71.19
2022-09-04T03:25:00.311Z,71.20
2022-09-04T03:26:01.769Z,71.20
2022-09-04T03:27:04.700Z,71.07
2022-09-04T03:28:07.320Z,71.08
2022-09-04T03:29:10.151Z,71.19
2022-09-04T03:30:11.971Z,71.24
2022-09-04T03:31:16.982Z,71.29
2022-09-04T03:32:24.915Z,71.14
2022-09-04T03:33:39.674Z,71.17
2022-09-04T03:34:42.670Z,71.20
2022-09-04T03:35:47.271Z,71.21
2022-09-04T03:36:48.746Z,71.11
2022-09-04T03:37:50.223Z,71.15
2022-09-04T03:39:18.370Z,71.05
2022-09-04T03:40:38.679Z,71.09
2022-09-04T03:41:42.561Z,71.02
2022-09-04T03:42:47.262Z,71.02
2022-09-04T03:43:51.774Z,71.11
2022-09-04T03:45:22.704Z,71.06
2022-09-04T03:46:31.731Z,70.99
2022-09-04T03:47:52.011Z,71.07
2022-09-04T03:48:56.536Z,71.07
2022-09-04T03:50:13.258Z,70.99
2022-09-04T03:51:14.739Z,70.98
2022-09-04T03:52:19.578Z,71.00
2022-09-04T03:53:39.432Z,70.86
2022-09-04T03:54:59.765Z,71.13
2022-09-04T03:56:19.877Z,71.21
2022-09-04T03:57:30.364Z,71.15
2022-09-04T03:58:38.111Z,71.36
2022-09-04T03:59:45.491Z,71.35
2022-09-04T04:01:02.223Z,71.46
2022-09-04T04:02:06.622Z,71.53
2022-09-04T04:03:18.903Z,71.52
2022-09-04T04:04:42.358Z,71.81
2022-09-04T04:05:48.192Z,71.88
2022-09-04T04:06:54.066Z,71.93
2022-09-04T04:08:04.747Z,72.14
2022-09-04T04:09:21.270Z,72.11
2022-09-04T04:10:33.422Z,72.22
2022-09-04T04:11:35.469Z,72.32
2022-09-04T04:12:51.339Z,72.36
2022-09-04T04:14:00.274Z,72.38
2022-09-04T04:15:03.513Z,72.45
2022-09-04T04:16:31.745Z,72.48
2022-09-04T04:17:33.371Z,72.50
2022-09-04T04:18:54.225Z,72.46
2022-09-04T04:20:05.758Z,72.71
2022-09-04T04:21:13.194Z,72.71
2022-09-04T04:22:17.675Z,72.72
2022-09-04T04:23:37.980Z,72.60
2022-09-04T04:24:56.547Z,72.75
2022-09-04T04:26:11.242Z,72.73
2022-09-04T04:27:15.348Z,72.12
2022-09-04T04:28:20.169Z,72.07
2022-09-04T04:29:30.335Z,72.03
2022-09-04T04:30:54.894Z,71.87
2022-09-04T04:32:15.093Z,71.85
2022-09-04T04:33:35.260Z,71.92
2022-09-04T04:34:39.954Z,71.85
2022-09-04T04:35:44.530Z,71.67
2022-09-04T04:36:45.997Z,71.47
2022-09-04T04:37:53.555Z,71.47
2022-09-04T04:39:14.012Z,71.56
2022-09-04T04:40:27.727Z,71.55
2022-09-04T04:42:03.432Z,71.50
2022-09-04T04:43:07.659Z,71.54
2022-09-04T04:44:11.694Z,71.50
2022-09-04T04:45:50.454Z,71.63
2022-09-04T04:47:11.560Z,71.61
2022-09-04T04:48:15.832Z,71.66
2022-09-04T04:49:17.311Z,71.67
2022-09-04T04:50:21.435Z,71.69
2022-09-04T04:51:31.847Z,71.94
2022-09-04T04:52:40.947Z,71.91
2022-09-04T04:54:09.699Z,72.00
2022-09-04T04:55:31.400Z,71.92
2022-09-04T04:56:34.533Z,71.95
2022-09-04T04:57:42.051Z,72.09
2022-09-04T04:58:43.530Z,72.07
2022-09-04T04:59:55.721Z,72.20
2022-09-04T05:01:09.564Z,72.17
2022-09-04T05:02:22.845Z,72.27
2022-09-04T05:03:32.360Z,72.29
2022-09-04T05:04:40.337Z,72.21
2022-09-04T05:05:42.266Z,72.20
2022-09-04T05:07:04.075Z,72.13
2022-09-04T05:08:22.819Z,72.16
2022-09-04T05:09:33.891Z,72.17
2022-09-04T05:10:55.635Z,72.23
2022-09-04T05:12:26.500Z,72.22
2022-09-04T05:13:45.476Z,72.29
2022-09-04T05:15:10.487Z,72.27
2022-09-04T05:16:14.164Z,72.32
2022-09-04T05:17:22.547Z,72.33
2022-09-04T05:18:30.398Z,72.41
2022-09-04T05:19:41.688Z,72.52
2022-09-04T05:21:01.869Z,72.50
2022-09-04T05:22:04.210Z,72.63
2022-09-04T05:23:09.700Z,72.55
2022-09-04T05:24:11.206Z,72.49
2022-09-04T05:25:12.801Z,72.61
2022-09-04T05:26:14.266Z,72.66
2022-09-04T05:27:31.136Z,72.37
2022-09-04T05:28:40.488Z,72.54
2022-09-04T05:29:56.888Z,72.46
2022-09-04T05:31:20.085Z,72.33
2022-09-04T05:32:27.485Z,72.39
2022-09-04T05:33:32.602Z,72.32
2022-09-04T05:34:49.832Z,72.47
2022-09-04T05:35:55.938Z,72.27
2022-09-04T05:37:17.148Z,72.32
2022-09-04T05:38:21.407Z,72.45
2022-09-04T05:39:35.914Z,72.60
2022-09-04T05:40:56.054Z,72.48
2022-09-04T05:42:09.951Z,72.69
2022-09-04T05:43:31.370Z,72.63
2022-09-04T05:44:44.843Z,72.75
2022-09-04T05:45:49.567Z,72.71
2022-09-04T05:47:09.866Z,72.93
2022-09-04T05:48:30.206Z,72.71
2022-09-04T05:49:31.693Z,72.56
2022-09-04T05:50:33.206Z,72.59
2022-09-04T05:51:50.559Z,72.67
2022-09-04T05:52:54.584Z,72.62
2022-09-04T05:54:08.334Z,72.76
2022-09-04T05:55:22.147Z,72.76
2022-09-04T05:56:42.314Z,72.93
2022-09-04T05:58:02.547Z,72.94
2022-09-04T05:59:22.628Z,73.05
2022-09-04T06:00:24.167Z,73.15
2022-09-04T06:01:28.531Z,73.20
2022-09-04T06:02:48.505Z,73.41
2022-09-04T06:04:08.514Z,73.27
2022-09-04T06:05:28.678Z,73.50
2022-09-04T06:06:56.787Z,73.52
2022-09-04T06:08:02.610Z,73.62
2022-09-04T06:09:23.031Z,73.52
2022-09-04T06:10:24.758Z,73.56
2022-09-04T06:11:49.875Z,73.67
2022-09-04T06:12:54.259Z,73.68
2022-09-04T06:14:01.759Z,73.70
2022-09-04T06:15:13.035Z,73.75
2022-09-04T06:16:17.690Z,73.74
2022-09-04T06:17:25.268Z,73.76
2022-09-04T06:18:32.901Z,73.74
2022-09-04T06:19:47.473Z,73.92
2022-09-04T06:20:57.982Z,74.06
2022-09-04T06:22:08.455Z,74.11
2022-09-04T06:23:09.979Z,74.15
2022-09-04T06:24:11.456Z,74.10
2022-09-04T06:25:30.204Z,74.27
2022-09-04T06:26:39.634Z,74.40
2022-09-04T06:27:56.148Z,74.38
2022-09-04T06:29:06.790Z,74.29
2022-09-04T06:30:09.022Z,74.29
2022-09-04T06:31:30.911Z,74.25
2022-09-04T06:32:51.108Z,74.30
2022-09-04T06:34:04.752Z,74.30
2022-09-04T06:35:07.501Z,74.25
2022-09-04T06:36:12.188Z,74.28
2022-09-04T06:37:28.757Z,74.24
2022-09-04T06:38:33.165Z,74.29
2022-09-04T06:39:40.586Z,74.43
2022-09-04T06:40:45.096Z,74.42
2022-09-04T06:41:52.671Z,74.45
2022-09-04T06:43:04.165Z,74.46
2022-09-04T06:44:17.576Z,74.46
2022-09-04T06:45:22.646Z,74.59
2022-09-04T06:46:39.254Z,74.64
2022-09-04T06:47:43.923Z,74.71
2022-09-04T06:48:50.232Z,74.56
2022-09-04T06:50:00.888Z,74.53
2022-09-04T06:51:37.745Z,74.78
2022-09-04T06:52:43.408Z,74.62
2022-09-04T06:53:45.023Z,74.67
2022-09-04T06:54:46.695Z,74.55
2022-09-04T06:55:51.774Z,74.71
2022-09-04T06:56:55.814Z,74.48
2022-09-04T06:58:10.794Z,74.48
2022-09-04T06:59:13.330Z,74.85
2022-09-04T07:00:15.163Z,74.78
2022-09-04T07:01:19.777Z,74.58
2022-09-04T07:02:40.405Z,74.40
2022-09-04T07:03:42.002Z,74.65
2022-09-04T07:04:59.439Z,74.78
2022-09-04T07:06:21.198Z,74.75
2022-09-04T07:07:32.009Z,74.82
2022-09-04T07:08:45.792Z,74.81
2022-09-04T07:09:48.455Z,74.70
2022-09-04T07:10:59.242Z,74.59
2022-09-04T07:12:12.568Z,74.68
2022-09-04T07:13:37.115Z,74.89
2022-09-04T07:14:56.919Z,74.93
2022-09-04T07:15:58.786Z,75.05
2022-09-04T07:17:06.383Z,75.06
2022-09-04T07:18:17.569Z,75.01
2022-09-04T07:19:22.107Z,75.09
2022-09-04T07:20:37.521Z,75.11
2022-09-04T07:21:40.162Z,75.04
2022-09-04T07:22:50.378Z,75.02
2022-09-04T07:24:10.246Z,74.70
2022-09-04T07:25:26.343Z,74.74
2022-09-04T07:26:45.966Z,74.69
2022-09-04T07:27:55.743Z,74.62
2022-09-04T07:29:05.831Z,74.35
2022-09-04T07:30:08.175Z,74.30
2022-09-04T07:31:09.862Z,74.34
2022-09-04T07:32:16.594Z,74.28
2022-09-04T07:33:18.156Z,74.57
2022-09-04T07:34:19.791Z,74.35
2022-09-04T07:35:23.808Z,74.39
2022-09-04T07:36:31.891Z,74.34
2022-09-04T07:37:39.638Z,74.23
2022-09-04T07:38:50.614Z,74.44
2022-09-04T07:39:58.109Z,74.64
2022-09-04T07:41:35.433Z,74.38
2022-09-04T07:42:40.027Z,74.22
2022-09-04T07:43:46.147Z,74.14
2022-09-04T07:44:54.749Z,74.20
2022-09-04T07:46:05.371Z,74.43
2022-09-04T07:47:13.432Z,74.74
2022-09-04T07:48:28.591Z,74.80
2022-09-04T07:49:35.355Z,74.56
2022-09-04T07:50:40.220Z,74.83
2022-09-04T07:52:02.061Z,74.69
2022-09-04T07:53:22.128Z,74.70
2022-09-04T07:54:43.615Z,74.46
2022-09-04T07:55:48.453Z,74.35
2022-09-04T07:56:54.550Z,74.15
2022-09-04T07:58:02.480Z,73.99
2022-09-04T07:59:03.995Z,73.94
2022-09-04T08:00:08.285Z,73.93
2022-09-04T08:01:18.097Z,74.35
2022-09-04T08:02:19.818Z,74.22
2022-09-04T08:03:24.888Z,74.38
2022-09-04T08:04:33.315Z,74.56
2022-09-04T08:05:37.850Z,74.40
2022-09-04T08:06:51.437Z,74.32
2022-09-04T08:08:03.806Z,74.21
2022-09-04T08:09:05.364Z,74.39
2022-09-04T08:10:09.871Z,74.27
2022-09-04T08:11:17.614Z,74.14
2022-09-04T08:12:25.726Z,74.28
2022-09-04T08:13:47.475Z,74.55
2022-09-04T08:14:51.860Z,74.42
2022-09-04T08:16:06.438Z,74.32
2022-09-04T08:17:20.857Z,74.17
2022-09-04T08:18:22.450Z,74.57
2022-09-04T08:19:41.134Z,74.56
2022-09-04T08:20:51.230Z,74.41
2022-09-04T08:21:52.812Z,74.35
2022-09-04T08:23:13.019Z,74.32
2022-09-04T08:24:17.391Z,74.62
2022-09-04T08:25:28.559Z,74.44
2022-09-04T08:26:39.032Z,74.53
2022-09-04T08:27:44.398Z,74.19
2022-09-04T08:29:04.982Z,74.44
2022-09-04T08:30:07.459Z,74.49
2022-09-04T08:31:11.138Z,74.49
2022-09-04T08:32:15.654Z,74.81
2022-09-04T08:33:30.370Z,74.98
2022-09-04T08:34:53.711Z,74.92
2022-09-04T08:36:34.105Z,75.10
2022-09-04T08:37:41.338Z,74.91
2022-09-04T08:38:50.169Z,75.02
2022-09-04T08:39:55.569Z,75.07
2022-09-04T08:40:57.718Z,74.99
2022-09-04T08:42:10.619Z,74.57
2022-09-04T08:43:32.418Z,74.46
2022-09-04T08:44:52.309Z,74.57
2022-09-04T08:45:53.832Z,74.50
2022-09-04T08:47:14.301Z,74.66
2022-09-04T08:48:19.225Z,74.50
2022-09-04T08:49:28.511Z,74.28
2022-09-04T08:50:30.043Z,74.38
2022-09-04T08:51:50.236Z,74.63
2022-09-04T08:53:03.935Z,74.44
2022-09-04T08:54:25.405Z,74.87
2022-09-04T08:55:36.038Z,74.76
2022-09-04T08:56:49.545Z,74.60
2022-09-04T08:57:57.274Z,74.73
2022-09-04T08:59:17.995Z,74.88
2022-09-04T09:00:20.615Z,74.79
2022-09-04T09:01:24.757Z,74.51
2022-09-04T09:02:29.327Z,74.28
2022-09-04T09:03:37.012Z,74.35
2022-09-04T09:04:55.137Z,74.61
2022-09-04T09:06:06.785Z,74.61
2022-09-04T09:07:11.071Z,74.69
2022-09-04T09:08:12.592Z,75.17
2022-09-04T09:09:27.251Z,74.59
2022-09-04T09:10:34.565Z,74.39
2022-09-04T09:11:44.819Z,74.04
2022-09-04T09:12:49.438Z,74.33
2022-09-04T09:14:01.982Z,74.33
2022-09-04T09:15:15.675Z,74.92
2022-09-04T09:16:23.383Z,74.86
2022-09-04T09:17:40.703Z,75.38
2022-09-04T09:19:00.642Z,74.66
2022-09-04T09:20:20.804Z,74.45
2022-09-04T09:21:28.362Z,74.11
2022-09-04T09:22:49.006Z,73.21
2022-09-04T09:24:11.302Z,72.75
2022-09-04T09:25:15.947Z,72.59
2022-09-04T09:26:26.509Z,72.99
2022-09-04T09:27:37.254Z,74.22
2022-09-04T09:28:38.791Z,74.37
2022-09-04T09:29:59.158Z,73.87
2022-09-04T09:31:09.773Z,74.93
2022-09-04T09:32:30.785Z,75.42
2022-09-04T09:33:51.338Z,72.66
2022-09-04T09:35:08.781Z,70.36
2022-09-04T09:36:12.113Z,69.85
2022-09-04T09:37:34.491Z,70.20
2022-09-04T09:38:54.770Z,70.45
2022-09-04T09:40:14.706Z,69.84
2022-09-04T09:41:35.167Z,69.56
2022-09-04T09:42:55.274Z,70.81
2022-09-04T09:44:15.726Z,70.58
2022-09-04T09:45:22.070Z,71.56
2022-09-04T09:46:40.813Z,69.29
2022-09-04T09:48:00.947Z,67.18
2022-09-04T09:49:15.041Z,67.48
2022-09-04T09:50:22.961Z,67.65
2022-09-04T09:51:44.450Z,66.88
2022-09-04T09:52:58.248Z,65.89
2022-09-04T09:54:08.947Z,66.40
2022-09-04T09:55:28.951Z,67.91
2022-09-04T09:56:53.785Z,67.29
2022-09-04T09:58:10.870Z,64.97
2022-09-04T09:59:15.211Z,63.56
2022-09-04T10:00:21.323Z,63.11
2022-09-04T10:01:25.970Z,62.98
2022-09-04T10:02:46.535Z,63.08
2022-09-04T10:03:48.084Z,63.54
2022-09-04T10:04:55.806Z,62.75
2022-09-04T10:06:03.140Z,61.55
2022-09-04T10:07:04.651Z,60.82
2022-09-04T10:08:35.494Z,61.03
2022-09-04T10:09:50.021Z,60.27
2022-09-04T10:10:58.743Z,59.58
2022-09-04T10:12:11.764Z,58.56
2022-09-04T10:13:32.028Z,58.17
2022-09-04T10:14:52.214Z,57.32
2022-09-04T10:15:56.502Z,57.98
2022-09-04T10:17:17.011Z,57.97
2022-09-04T10:18:37.144Z,57.52
2022-09-04T10:19:58.367Z,58.47
2022-09-04T10:21:20.630Z,58.73
2022-09-04T10:22:22.179Z,56.87
2022-09-04T10:23:28.771Z,56.28
2022-09-04T10:24:33.205Z,55.55
2022-09-04T10:25:35.273Z,54.96
2022-09-04T10:26:42.643Z,54.67
2022-09-04T10:27:59.720Z,54.59
2022-09-04T10:29:10.903Z,54.75
2022-09-04T10:30:15.492Z,54.31
2022-09-04T10:31:17.065Z,53.47
2022-09-04T10:32:37.482Z,52.52
2022-09-04T10:33:58.408Z,53.51
2022-09-04T10:35:10.896Z,53.09
2022-09-04T10:36:23.321Z,53.03
2022-09-04T10:37:30.743Z,52.81
2022-09-04T10:38:33.977Z,51.45
2022-09-04T10:39:58.365Z,50.91
2022-09-04T10:41:18.916Z,50.01
2022-09-04T10:42:23.335Z,50.27
2022-09-04T10:43:30.893Z,49.73
2022-09-04T10:44:53.940Z,49.32
2022-09-04T10:45:55.699Z,49.20
2022-09-04T10:46:57.287Z,48.72
2022-09-04T10:48:07.761Z,48.56
2022-09-04T10:49:30.522Z,49.04
2022-09-04T10:50:35.357Z,47.91
2022-09-04T10:51:56.351Z,47.38
2022-09-04T10:53:20.253Z,46.61
2022-09-04T10:54:43.770Z,46.06
2022-09-04T10:55:53.271Z,46.33
2022-09-04T10:57:13.243Z,46.24
2022-09-04T10:58:40.854Z,46.02
2022-09-04T10:59:42.459Z,46.32
2022-09-04T11:00:50.178Z,46.42
2022-09-04T11:02:00.702Z,45.78
2022-09-04T11:03:17.305Z,46.25
2022-09-04T11:04:22.512Z,46.28
2022-09-04T11:05:24.087Z,46.77
2022-09-04T11:06:49.283Z,46.54
2022-09-04T11:07:53.822Z,47.05
2022-09-04T11:08:55.312Z,46.79
2022-09-04T11:10:04.359Z,45.84
2022-09-04T11:11:26.220Z,44.92
2022-09-04T11:12:37.050Z,45.24
2022-09-04T11:13:57.362Z,45.17
2022-09-04T11:15:01.948Z,45.71
2022-09-04T11:16:08.929Z,45.36
2022-09-04T11:17:25.651Z,45.27
2022-09-04T11:18:46.095Z,45.59
2022-09-04T11:19:53.730Z,45.75
2022-09-04T11:20:58.273Z,45.33
2022-09-04T11:22:15.139Z,44.69
2022-09-04T11:23:18.448Z,44.66
2022-09-04T11:24:37.306Z,44.56
2022-09-04T11:26:02.886Z,44.32
2022-09-04T11:27:23.690Z,45.11
2022-09-04T11:28:40.288Z,45.14
2022-09-04T11:29:56.930Z,44.92
2022-09-04T11:31:01.795Z,44.81
2022-09-04T11:32:38.479Z,45.08
2022-09-04T11:33:42.625Z,45.05
2022-09-04T11:34:48.269Z,45.36
2022-09-04T11:35:55.281Z,45.25
2022-09-04T11:37:08.854Z,44.84
2022-09-04T11:38:13.204Z,45.35
2022-09-04T11:39:26.220Z,45.33
2022-09-04T11:40:46.823Z,44.64
2022-09-04T11:42:03.882Z,44.93
2022-09-04T11:43:19.149Z,45.62
2022-09-04T11:44:26.544Z,46.09
2022-09-04T11:45:48.823Z,46.13
2022-09-04T11:47:08.873Z,44.95
2022-09-04T11:48:22.671Z,44.44
2022-09-04T11:49:31.169Z,44.55
2022-09-04T11:50:42.275Z,44.62
2022-09-04T11:51:44.123Z,45.07
2022-09-04T11:52:46.675Z,45.28
2022-09-04T11:54:00.392Z,45.24
2022-09-04T11:55:17.935Z,45.14
2022-09-04T11:56:28.462Z,45.35
2022-09-04T11:57:33.113Z,45.83
2022-09-04T11:58:56.890Z,45.83
2022-09-04T12:00:17.035Z,44.46
2022-09-04T12:01:18.578Z,43.67
2022-09-04T12:02:26.229Z,43.47
2022-09-04T12:03:45.784Z,43.57
2022-09-04T12:04:50.996Z,43.47
2022-09-04T12:06:12.441Z,43.87
2022-09-04T12:07:20.060Z,43.45
2022-09-04T12:08:37.419Z,43.99
2022-09-04T12:09:44.192Z,43.87
2022-09-04T12:10:52.400Z,44.48
2022-09-04T12:12:09.103Z,43.89
2022-09-04T12:13:19.550Z,43.50
2022-09-04T12:14:29.682Z,43.60
2022-09-04T12:15:38.452Z,43.69
2022-09-04T12:16:58.371Z,44.00
2022-09-04T12:18:09.058Z,42.47
2022-09-04T12:19:13.643Z,42.50
2022-09-04T12:20:16.067Z,42.49
2022-09-04T12:21:26.484Z,42.79
2022-09-04T12:22:31.266Z,43.19
2022-09-04T12:23:32.751Z,42.90
2022-09-04T12:25:03.713Z,42.91
2022-09-04T12:26:05.375Z,42.58
2022-09-04T12:27:08.155Z,42.57
2022-09-04T12:28:37.943Z,42.98
2022-09-04T12:29:47.255Z,42.84
2022-09-04T12:30:50.136Z,42.70
2022-09-04T12:31:58.122Z,42.83
2022-09-04T12:33:08.366Z,42.75
2022-09-04T12:34:19.376Z,42.03
2022-09-04T12:35:27.463Z,41.37
2022-09-04T12:36:52.154Z,41.85
2022-09-04T12:38:02.965Z,41.92
2022-09-04T12:39:23.470Z,42.16
2022-09-04T12:40:43.563Z,42.22
2022-09-04T12:41:50.116Z,41.95
2022-09-04T12:42:57.400Z,41.98
2022-09-04T12:44:08.809Z,42.21
2022-09-04T12:45:16.522Z,42.42
2022-09-04T12:46:37.072Z,42.86
2022-09-04T12:47:41.829Z,43.56
2022-09-04T12:48:46.192Z,43.72
2022-09-04T12:49:58.895Z,43.12
2022-09-04T12:51:01.640Z,42.84
2022-09-04T12:52:09.454Z,42.72
2022-09-04T12:53:20.964Z,42.21
2022-09-04T12:54:23.832Z,42.09
2022-09-04T12:55:36.215Z,42.37
2022-09-04T12:56:42.534Z,42.68
2022-09-04T12:57:47.210Z,42.81
2022-09-04T12:58:52.752Z,43.14
2022-09-04T13:00:12.334Z,42.37
2022-09-04T13:01:46.244Z,41.69
2022-09-04T13:02:50.645Z,42.16
2022-09-04T13:04:11.599Z,42.64
2022-09-04T13:05:32.591Z,42.83
2022-09-04T13:06:34.291Z,42.75
2022-09-04T13:07:54.893Z,42.74
2022-09-04T13:09:02.505Z,42.85
2022-09-04T13:10:09.893Z,42.59
2022-09-04T13:11:11.493Z,42.70
2022-09-04T13:12:17.282Z,42.63
2022-09-04T13:13:18.876Z,42.77
2022-09-04T13:14:28.383Z,42.63
2022-09-04T13:15:35.896Z,42.67
2022-09-04T13:16:42.515Z,42.78
2022-09-04T13:17:44.043Z,43.06
2022-09-04T13:19:00.164Z,43.30
2022-09-04T13:20:01.724Z,43.11
2022-09-04T13:21:03.399Z,43.07
2022-09-04T13:22:10.778Z,43.10
2022-09-04T13:23:36.945Z,43.14
2022-09-04T13:25:14.416Z,43.05
2022-09-04T13:26:24.289Z,43.20
2022-09-04T13:27:44.153Z,43.37
2022-09-04T13:29:04.241Z,43.63
2022-09-04T13:30:06.995Z,43.80
2022-09-04T13:31:09.413Z,43.92
2022-09-04T13:32:16.959Z,43.56
2022-09-04T13:33:39.769Z,43.37
2022-09-04T13:34:58.630Z,43.56
2022-09-04T13:36:03.234Z,43.81
2022-09-04T13:37:13.860Z,43.92
2022-09-04T13:38:24.334Z,43.83
2022-09-04T13:39:36.109Z,44.03
2022-09-04T13:41:00.191Z,43.71
2022-09-04T13:42:04.883Z,44.05
2022-09-04T13:43:21.576Z,44.36
2022-09-04T13:44:29.063Z,44.27
2022-09-04T13:45:33.062Z,43.95
2022-09-04T13:46:35.633Z,44.07
2022-09-04T13:47:38.932Z,44.37
2022-09-04T13:48:52.047Z,44.39
2022-09-04T13:49:56.431Z,44.51
2022-09-04T13:50:59.718Z,44.08
2022-09-04T13:52:07.113Z,44.27
2022-09-04T13:53:17.819Z,44.41
2022-09-04T13:54:25.207Z,44.58
2022-09-04T13:55:39.346Z,44.50
2022-09-04T13:56:45.119Z,44.08
2022-09-04T13:58:01.861Z,44.07
2022-09-04T13:59:08.526Z,43.93
2022-09-04T14:00:11.972Z,43.82
2022-09-04T14:01:15.430Z,43.98
2022-09-04T14:02:20.061Z,43.90
2022-09-04T14:03:27.658Z,43.81
2022-09-04T14:04:30.345Z,43.93
2022-09-04T14:05:32.317Z,44.00
2022-09-04T14:06:33.879Z,44.02
2022-09-04T14:07:36.318Z,44.07
2022-09-04T14:08:41.679Z,44.32
2022-09-04T14:09:44.281Z,44.73
2022-09-04T14:10:48.666Z,44.48
2022-09-04T14:11:58.150Z,44.84
2022-09-04T14:13:00.094Z,44.39
2022-09-04T14:14:03.192Z,43.98
2022-09-04T14:15:23.621Z,44.11
2022-09-04T14:16:25.411Z,44.41
2022-09-04T14:17:33.854Z,44.35
2022-09-04T14:18:50.674Z,44.51
2022-09-04T14:19:59.324Z,44.11
2022-09-04T14:21:03.641Z,43.71
2022-09-04T14:22:15.022Z,43.12
2022-09-04T14:23:20.311Z,43.30
2022-09-04T14:24:32.791Z,43.11
2022-09-04T14:25:38.088Z,43.67
2022-09-04T14:26:58.058Z,43.42
2022-09-04T14:28:03.470Z,43.78
2022-09-04T14:29:21.228Z,43.82
2022-09-04T14:30:23.055Z,44.27
2022-09-04T14:31:34.113Z,44.38
2022-09-04T14:32:39.743Z,44.45
2022-09-04T14:33:44.241Z,44.54
2022-09-04T14:34:57.184Z,44.40
2022-09-04T14:36:04.362Z,44.18
2022-09-04T14:37:26.155Z,44.05
2022-09-04T14:38:36.640Z,44.40
2022-09-04T14:39:44.764Z,43.98
2022-09-04T14:40:52.743Z,44.08
2022-09-04T14:41:58.286Z,44.34
2022-09-04T14:43:08.606Z,44.25
2022-09-04T14:44:10.121Z,44.19
2022-09-04T14:45:31.127Z,43.88
2022-09-04T14:46:35.556Z,44.17
2022-09-04T14:47:40.141Z,44.00
2022-09-04T14:48:44.558Z,43.56
2022-09-04T14:49:48.352Z,43.84
2022-09-04T14:50:51.235Z,44.21
2022-09-04T14:51:56.625Z,43.62
2022-09-04T14:53:00.816Z,43.66
2022-09-04T14:54:02.351Z,43.75
2022-09-04T14:55:04.031Z,43.69
2022-09-04T14:56:11.616Z,43.71
2022-09-04T14:57:36.502Z,43.75
2022-09-04T14:58:56.858Z,44.09
2022-09-04T15:00:01.361Z,43.75
2022-09-04T15:01:08.492Z,43.72
2022-09-04T15:02:12.760Z,43.73
2022-09-04T15:03:15.306Z,43.51
2022-09-04T15:04:21.756Z,43.28
2022-09-04T15:05:25.546Z,43.22
2022-09-04T15:07:01.006Z,43.43
2022-09-04T15:08:07.473Z,42.79
2022-09-04T15:09:35.226Z,42.11
2022-09-04T15:10:53.776Z,42.27
2022-09-04T15:12:21.021Z,42.05
2022-09-04T15:13:33.549Z,42.77
2022-09-04T15:14:37.027Z,41.86
2022-09-04T15:15:39.239Z,41.72
2022-09-04T15:16:44.312Z,42.10